sensor_id;sensor_type;location;lat;lon;timestamp;pressure;altitude;pressure_sealevel;temperature;humidity
14067;BME280;7108;42.684;23.350;2023-02-28T00:01:27;95796.81;;;8.64;100.00
14067;BME280;7108;42.684;23.350;2023-02-28T00:03:52;95798.84;;;8.67;100.00
14067;BME280;7108;42.684;23.350;2023-02-28T00:06:18;95824.81;;;8.75;100.00
14067;BME280;7108;42.684;23.350;2023-02-28T00:08:43;95815.16;;;8.62;100.00
14067;BME280;7108;42.684;23.350;2023-02-28T00:11:11;95820.47;;;8.70;100.00
14067;BME280;7108;42.684;23.350;2023-02-28T00:13:39;95807.53;;;8.52;100.00
14067;BME280;7108;42.684;23.350;2023-02-28T00:16:08;95827.59;;;8.66;100.00
14067;BME280;7108;42.684;23.350;2023-02-28T00:18:35;95809.41;;;8.51;100.00
14067;BME280;7108;42.684;23.350;2023-02-28T00:21:01;95838.75;;;8.56;100.00
14067;BME280;7108;42.684;23.350;2023-02-28T00:23:27;95836.00;;;8.65;100.00
14067;BME280;7108;42.684;23.350;2023-02-28T00:25:53;95836.53;;;8.58;100.00
14067;BME280;7108;42.684;23.350;2023-02-28T00:28:19;95826.06;;;8.45;100.00
14067;BME280;7108;42.684;23.350;2023-02-28T00:30:45;95825.28;;;8.45;100.00
14067;BME280;7108;42.684;23.350;2023-02-28T00:33:11;95831.97;;;8.39;100.00
14067;BME280;7108;42.684;23.350;2023-02-28T00:35:37;95852.03;;;8.53;100.00
14067;BME280;7108;42.684;23.350;2023-02-28T00:38:03;95828.03;;;8.36;100.00
14067;BME280;7108;42.684;23.350;2023-02-28T00:40:29;95834.72;;;8.30;100.00
14067;BME280;7108;42.684;23.350;2023-02-28T00:42:55;95849.84;;;8.35;100.00
14067;BME280;7108;42.684;23.350;2023-02-28T00:45:20;95832.88;;;8.22;100.00
14067;BME280;7108;42.684;23.350;2023-02-28T00:47:46;95831.53;;;8.16;100.00
14067;BME280;7108;42.684;23.350;2023-02-28T00:50:16;95808.91;;;7.97;100.00
14067;BME280;7108;42.684;23.350;2023-02-28T00:52:42;95812.22;;;7.94;100.00
14067;BME280;7108;42.684;23.350;2023-02-28T00:55:08;95808.19;;;7.88;100.00
14067;BME280;7108;42.684;23.350;2023-02-28T00:57:36;95821.50;;;7.96;100.00
14067;BME280;7108;42.684;23.350;2023-02-28T01:00:03;95806.94;;;7.85;100.00
14067;BME280;7108;42.684;23.350;2023-02-28T01:02:29;95829.25;;;7.98;100.00
14067;BME280;7108;42.684;23.350;2023-02-28T01:04:55;95838.22;;;8.02;100.00
14067;BME280;7108;42.684;23.350;2023-02-28T01:07:22;95841.44;;;7.95;100.00
14067;BME280;7108;42.684;23.350;2023-02-28T01:09:48;95842.91;;;8.05;100.00
14067;BME280;7108;42.684;23.350;2023-02-28T01:12:14;95820.59;;;7.92;100.00
14067;BME280;7108;42.684;23.350;2023-02-28T01:14:39;95810.47;;;7.98;100.00
14067;BME280;7108;42.684;23.350;2023-02-28T01:17:05;95816.13;;;7.96;100.00
14067;BME280;7108;42.684;23.350;2023-02-28T01:19:31;95795.19;;;7.90;100.00
14067;BME280;7108;42.684;23.350;2023-02-28T01:21:56;95826.81;;;8.05;100.00
14067;BME280;7108;42.684;23.350;2023-02-28T01:24:22;95813.94;;;7.98;100.00
14067;BME280;7108;42.684;23.350;2023-02-28T01:26:47;95788.00;;;7.82;100.00
14067;BME280;7108;42.684;23.350;2023-02-28T01:29:13;95810.59;;;8.01;100.00
14067;BME280;7108;42.684;23.350;2023-02-28T01:31:38;95788.22;;;7.97;100.00
14067;BME280;7108;42.684;23.350;2023-02-28T01:34:04;95814.34;;;8.09;100.00
14067;BME280;7108;42.684;23.350;2023-02-28T01:36:29;95812.44;;;8.09;100.00
14067;BME280;7108;42.684;23.350;2023-02-28T01:38:55;95806.16;;;8.05;100.00
14067;BME280;7108;42.684;23.350;2023-02-28T01:46:12;95820.94;;;8.11;100.00
14067;BME280;7108;42.684;23.350;2023-02-28T01:48:45;95803.34;;;8.02;100.00
14067;BME280;7108;42.684;23.350;2023-02-28T01:51:17;95808.38;;;8.03;100.00
14067;BME280;7108;42.684;23.350;2023-02-28T01:53:58;95823.94;;;8.10;100.00
14067;BME280;7108;42.684;23.350;2023-02-28T01:56:29;95822.25;;;8.05;100.00
14067;BME280;7108;42.684;23.350;2023-02-28T01:58:56;95818.78;;;8.05;100.00
14067;BME280;7108;42.684;23.350;2023-02-28T02:01:23;95814.97;;;8.06;100.00
14067;BME280;7108;42.684;23.350;2023-02-28T02:03:56;95826.47;;;8.15;100.00
14067;BME280;7108;42.684;23.350;2023-02-28T02:06:29;95819.38;;;8.10;100.00
14067;BME280;7108;42.684;23.350;2023-02-28T02:08:55;95802.91;;;7.91;100.00
14067;BME280;7108;42.684;23.350;2023-02-28T02:11:23;95818.97;;;8.00;100.00
14067;BME280;7108;42.684;23.350;2023-02-28T02:14:24;95824.81;;;8.02;100.00
14067;BME280;7108;42.684;23.350;2023-02-28T02:17:11;95821.78;;;8.03;100.00
14067;BME280;7108;42.684;23.350;2023-02-28T02:34:26;95801.19;;;7.95;100.00
14067;BME280;7108;42.684;23.350;2023-02-28T02:37:13;95825.72;;;8.06;100.00
14067;BME280;7108;42.684;23.350;2023-02-28T02:39:50;95815.50;;;7.99;100.00
14067;BME280;7108;42.684;23.350;2023-02-28T02:42:24;95822.50;;;7.92;100.00
14067;BME280;7108;42.684;23.350;2023-02-28T02:45:05;95828.38;;;7.85;100.00
14067;BME280;7108;42.684;23.350;2023-02-28T02:47:33;95835.72;;;7.97;100.00
14067;BME280;7108;42.684;23.350;2023-02-28T02:50:02;95835.06;;;8.00;100.00
14067;BME280;7108;42.684;23.350;2023-02-28T02:52:36;95834.22;;;8.08;100.00
14067;BME280;7108;42.684;23.350;2023-02-28T02:55:05;95835.91;;;8.12;100.00
14067;BME280;7108;42.684;23.350;2023-02-28T02:58:01;95824.09;;;7.93;100.00
14067;BME280;7108;42.684;23.350;2023-02-28T03:00:41;95805.22;;;7.81;100.00
14067;BME280;7108;42.684;23.350;2023-02-28T03:03:09;95838.78;;;8.07;100.00
14067;BME280;7108;42.684;23.350;2023-02-28T03:05:47;95849.34;;;8.12;100.00
14067;BME280;7108;42.684;23.350;2023-02-28T03:08:13;95844.69;;;8.01;100.00
14067;BME280;7108;42.684;23.350;2023-02-28T03:10:44;95846.97;;;8.11;100.00
14067;BME280;7108;42.684;23.350;2023-02-28T03:16:20;95857.88;;;8.14;100.00
14067;BME280;7108;42.684;23.350;2023-02-28T03:21:42;95864.50;;;8.17;100.00
14067;BME280;7108;42.684;23.350;2023-02-28T03:24:14;95847.69;;;7.99;100.00
14067;BME280;7108;42.684;23.350;2023-02-28T03:26:46;95868.78;;;8.09;100.00
14067;BME280;7108;42.684;23.350;2023-02-28T03:29:24;95880.75;;;8.20;100.00
14067;BME280;7108;42.684;23.350;2023-02-28T03:31:59;95873.66;;;8.16;100.00
14067;BME280;7108;42.684;23.350;2023-02-28T03:37:00;95890.22;;;8.38;100.00
14067;BME280;7108;42.684;23.350;2023-02-28T03:39:31;95853.66;;;8.05;100.00
14067;BME280;7108;42.684;23.350;2023-02-28T03:42:01;95880.28;;;8.10;100.00
14067;BME280;7108;42.684;23.350;2023-02-28T03:44:51;95885.53;;;8.06;100.00
14067;BME280;7108;42.684;23.350;2023-02-28T03:49:52;95892.59;;;7.90;100.00
14067;BME280;7108;42.684;23.350;2023-02-28T03:52:22;95880.03;;;7.74;100.00
14067;BME280;7108;42.684;23.350;2023-02-28T03:54:56;95897.19;;;7.81;100.00
14067;BME280;7108;42.684;23.350;2023-02-28T04:00:21;95903.25;;;7.99;100.00
14067;BME280;7108;42.684;23.350;2023-02-28T04:02:54;95905.06;;;7.86;100.00
14067;BME280;7108;42.684;23.350;2023-02-28T04:05:20;95915.63;;;7.83;100.00
14067;BME280;7108;42.684;23.350;2023-02-28T04:07:46;95902.88;;;7.80;100.00
14067;BME280;7108;42.684;23.350;2023-02-28T04:10:16;95912.97;;;7.83;100.00
14067;BME280;7108;42.684;23.350;2023-02-28T04:12:45;95905.09;;;7.78;100.00
14067;BME280;7108;42.684;23.350;2023-02-28T04:15:11;95900.47;;;7.58;100.00
14067;BME280;7108;42.684;23.350;2023-02-28T04:17:36;95879.69;;;7.47;100.00
14067;BME280;7108;42.684;23.350;2023-02-28T04:20:03;95913.66;;;7.72;100.00
14067;BME280;7108;42.684;23.350;2023-02-28T04:22:34;95903.72;;;7.72;100.00
14067;BME280;7108;42.684;23.350;2023-02-28T04:24:59;95902.88;;;7.80;100.00
14067;BME280;7108;42.684;23.350;2023-02-28T04:27:25;95904.53;;;7.64;100.00
14067;BME280;7108;42.684;23.350;2023-02-28T04:29:50;95910.75;;;7.56;100.00
14067;BME280;7108;42.684;23.350;2023-02-28T04:32:16;95907.56;;;7.54;100.00
14067;BME280;7108;42.684;23.350;2023-02-28T04:34:41;95882.44;;;7.30;100.00
14067;BME280;7108;42.684;23.350;2023-02-28T04:37:07;95925.59;;;7.45;100.00
14067;BME280;7108;42.684;23.350;2023-02-28T04:39:35;95898.84;;;7.28;100.00
14067;BME280;7108;42.684;23.350;2023-02-28T04:42:01;95907.63;;;7.37;100.00
14067;BME280;7108;42.684;23.350;2023-02-28T04:44:27;95910.75;;;7.48;100.00
14067;BME280;7108;42.684;23.350;2023-02-28T04:46:52;95927.19;;;7.46;100.00
14067;BME280;7108;42.684;23.350;2023-02-28T04:49:20;95936.94;;;7.42;100.00
14067;BME280;7108;42.684;23.350;2023-02-28T04:51:46;95946.25;;;7.36;100.00
14067;BME280;7108;42.684;23.350;2023-02-28T04:54:15;95930.69;;;7.21;100.00
14067;BME280;7108;42.684;23.350;2023-02-28T04:56:41;95937.63;;;7.31;100.00
14067;BME280;7108;42.684;23.350;2023-02-28T04:59:12;95932.91;;;7.28;100.00
14067;BME280;7108;42.684;23.350;2023-02-28T05:01:38;95946.31;;;7.28;100.00
14067;BME280;7108;42.684;23.350;2023-02-28T05:04:06;95930.09;;;7.16;100.00
14067;BME280;7108;42.684;23.350;2023-02-28T05:06:37;95885.06;;;6.93;100.00
14067;BME280;7108;42.684;23.350;2023-02-28T05:09:03;95942.31;;;7.34;100.00
14067;BME280;7108;42.684;23.350;2023-02-28T05:11:31;95941.53;;;7.42;100.00
14067;BME280;7108;42.684;23.350;2023-02-28T05:14:01;95901.53;;;7.20;100.00
14067;BME280;7108;42.684;23.350;2023-02-28T05:16:27;95887.53;;;7.15;100.00
14067;BME280;7108;42.684;23.350;2023-02-28T05:18:52;95944.81;;;7.47;100.00
14067;BME280;7108;42.684;23.350;2023-02-28T05:21:24;95942.09;;;7.56;100.00
14067;BME280;7108;42.684;23.350;2023-02-28T05:23:51;95939.19;;;7.40;100.00
14067;BME280;7108;42.684;23.350;2023-02-28T05:26:17;95943.56;;;7.45;100.00
14067;BME280;7108;42.684;23.350;2023-02-28T05:28:43;95946.88;;;7.50;100.00
14067;BME280;7108;42.684;23.350;2023-02-28T05:31:18;95956.31;;;7.56;100.00
14067;BME280;7108;42.684;23.350;2023-02-28T05:33:44;95940.41;;;7.51;100.00
14067;BME280;7108;42.684;23.350;2023-02-28T05:36:09;95929.56;;;7.39;100.00
14067;BME280;7108;42.684;23.350;2023-02-28T05:38:35;95954.09;;;7.58;100.00
14067;BME280;7108;42.684;23.350;2023-02-28T05:41:05;95953.72;;;7.68;100.00
14067;BME280;7108;42.684;23.350;2023-02-28T05:43:31;95945.06;;;7.71;100.00
14067;BME280;7108;42.684;23.350;2023-02-28T05:45:57;95969.78;;;7.85;100.00
14067;BME280;7108;42.684;23.350;2023-02-28T05:48:25;95960.66;;;7.78;100.00
14067;BME280;7108;42.684;23.350;2023-02-28T05:50:51;95954.38;;;7.65;100.00
14067;BME280;7108;42.684;23.350;2023-02-28T05:53:16;95977.44;;;7.66;100.00
14067;BME280;7108;42.684;23.350;2023-02-28T05:55:42;95962.47;;;7.57;100.00
14067;BME280;7108;42.684;23.350;2023-02-28T05:58:10;95964.03;;;7.58;100.00
14067;BME280;7108;42.684;23.350;2023-02-28T06:00:35;95970.03;;;7.55;100.00
14067;BME280;7108;42.684;23.350;2023-02-28T06:03:01;95970.19;;;7.58;100.00
14067;BME280;7108;42.684;23.350;2023-02-28T06:05:30;95957.09;;;7.57;100.00
14067;BME280;7108;42.684;23.350;2023-02-28T06:07:55;95963.88;;;7.54;100.00
14067;BME280;7108;42.684;23.350;2023-02-28T06:10:21;95976.16;;;7.64;100.00
14067;BME280;7108;42.684;23.350;2023-02-28T06:12:46;95969.53;;;7.70;100.00
14067;BME280;7108;42.684;23.350;2023-02-28T06:15:13;95963.72;;;7.59;100.00
14067;BME280;7108;42.684;23.350;2023-02-28T06:17:40;95972.84;;;7.67;100.00
14067;BME280;7108;42.684;23.350;2023-02-28T06:20:07;95967.03;;;7.56;100.00
14067;BME280;7108;42.684;23.350;2023-02-28T06:22:35;95973.97;;;7.57;100.00
14067;BME280;7108;42.684;23.350;2023-02-28T06:25:01;95970.19;;;7.58;100.00
14067;BME280;7108;42.684;23.350;2023-02-28T06:27:26;95970.34;;;7.53;100.00
14067;BME280;7108;42.684;23.350;2023-02-28T06:29:58;95959.19;;;7.43;100.00
14067;BME280;7108;42.684;23.350;2023-02-28T06:32:24;95983.75;;;7.53;100.00
14067;BME280;7108;42.684;23.350;2023-02-28T06:34:49;95975.44;;;7.38;100.00
14067;BME280;7108;42.684;23.350;2023-02-28T06:37:18;95969.78;;;7.31;100.00
14067;BME280;7108;42.684;23.350;2023-02-28T06:39:44;95985.53;;;7.32;100.00
14067;BME280;7108;42.684;23.350;2023-02-28T06:42:15;95989.31;;;7.40;100.00
14067;BME280;7108;42.684;23.350;2023-02-28T06:44:40;95989.19;;;7.28;100.00
14067;BME280;7108;42.684;23.350;2023-02-28T06:47:08;95939.56;;;6.97;100.00
14067;BME280;7108;42.684;23.350;2023-02-28T06:49:37;95998.13;;;7.49;100.00
14067;BME280;7108;42.684;23.350;2023-02-28T06:52:04;95982.53;;;7.42;100.00
14067;BME280;7108;42.684;23.350;2023-02-28T06:54:29;95980.03;;;7.29;100.00
14067;BME280;7108;42.684;23.350;2023-02-28T06:56:55;96006.97;;;7.41;100.00
14067;BME280;7108;42.684;23.350;2023-02-28T06:59:22;95987.91;;;7.34;100.00
14067;BME280;7108;42.684;23.350;2023-02-28T07:01:47;95999.41;;;7.43;100.00
14067;BME280;7108;42.684;23.350;2023-02-28T07:04:13;95986.78;;;7.35;100.00
14067;BME280;7108;42.684;23.350;2023-02-28T07:06:39;96003.34;;;7.45;100.00
14067;BME280;7108;42.684;23.350;2023-02-28T07:09:04;96012.34;;;7.41;100.00
14067;BME280;7108;42.684;23.350;2023-02-28T07:11:30;95963.66;;;7.22;100.00
14067;BME280;7108;42.684;23.350;2023-02-28T07:13:56;95998.16;;;7.40;100.00
14067;BME280;7108;42.684;23.350;2023-02-28T07:16:23;95982.41;;;7.30;100.00
14067;BME280;7108;42.684;23.350;2023-02-28T07:18:49;95978.13;;;7.38;100.00
14067;BME280;7108;42.684;23.350;2023-02-28T07:21:15;95998.91;;;7.58;100.00
14067;BME280;7108;42.684;23.350;2023-02-28T07:23:41;95993.69;;;7.61;100.00
14067;BME280;7108;42.684;23.350;2023-02-28T07:26:11;95964.72;;;7.46;100.00
14067;BME280;7108;42.684;23.350;2023-02-28T07:28:38;96004.22;;;7.75;100.00
14067;BME280;7108;42.684;23.350;2023-02-28T07:31:05;95977.59;;;7.61;100.00
14067;BME280;7108;42.684;23.350;2023-02-28T07:33:30;95964.00;;;7.66;100.00
14067;BME280;7108;42.684;23.350;2023-02-28T07:36:07;95989.19;;;7.90;100.00
14067;BME280;7108;42.684;23.350;2023-02-28T07:38:36;95984.91;;;7.89;100.00
14067;BME280;7108;42.684;23.350;2023-02-28T07:41:02;95999.38;;;8.14;100.00
14067;BME280;7108;42.684;23.350;2023-02-28T07:43:30;95964.47;;;8.05;100.00
14067;BME280;7108;42.684;23.350;2023-02-28T07:46:08;95974.88;;;8.07;100.00
14067;BME280;7108;42.684;23.350;2023-02-28T07:48:37;95994.44;;;8.16;100.00
14067;BME280;7108;42.684;23.350;2023-02-28T07:51:02;95991.91;;;8.11;100.00
14067;BME280;7108;42.684;23.350;2023-02-28T07:53:28;95981.03;;;8.07;100.00
14067;BME280;7108;42.684;23.350;2023-02-28T07:55:58;95982.28;;;8.18;100.00
14067;BME280;7108;42.684;23.350;2023-02-28T07:58:24;95970.75;;;8.18;100.00
14067;BME280;7108;42.684;23.350;2023-02-28T08:00:50;95977.63;;;8.27;100.00
14067;BME280;7108;42.684;23.350;2023-02-28T08:03:18;95976.97;;;8.39;100.00
14067;BME280;7108;42.684;23.350;2023-02-28T08:05:43;95967.66;;;8.36;100.00
14067;BME280;7108;42.684;23.350;2023-02-28T08:08:12;95981.84;;;8.37;100.00
14067;BME280;7108;42.684;23.350;2023-02-28T08:10:37;95971.06;;;8.45;100.00
14067;BME280;7108;42.684;23.350;2023-02-28T08:13:03;95972.78;;;8.49;100.00
14067;BME280;7108;42.684;23.350;2023-02-28T08:15:29;95964.34;;;8.59;100.00
14067;BME280;7108;42.684;23.350;2023-02-28T08:17:54;95969.00;;;8.71;100.00
14067;BME280;7108;42.684;23.350;2023-02-28T08:20:22;95979.56;;;8.96;100.00
14067;BME280;7108;42.684;23.350;2023-02-28T08:22:47;95970.75;;;9.08;100.00
14067;BME280;7108;42.684;23.350;2023-02-28T08:25:13;95949.91;;;9.05;100.00
14067;BME280;7108;42.684;23.350;2023-02-28T08:27:39;95962.75;;;9.19;100.00
14067;BME280;7108;42.684;23.350;2023-02-28T08:30:05;95976.00;;;9.36;100.00
14067;BME280;7108;42.684;23.350;2023-02-28T08:32:35;95970.88;;;9.43;100.00
14067;BME280;7108;42.684;23.350;2023-02-28T08:35:01;95960.13;;;9.43;100.00
14067;BME280;7108;42.684;23.350;2023-02-28T08:37:28;95970.31;;;9.50;100.00
14067;BME280;7108;42.684;23.350;2023-02-28T08:39:53;95981.91;;;9.62;100.00
14067;BME280;7108;42.684;23.350;2023-02-28T08:42:19;95967.13;;;9.68;100.00
14067;BME280;7108;42.684;23.350;2023-02-28T08:44:47;95965.66;;;9.71;100.00
14067;BME280;7108;42.684;23.350;2023-02-28T08:47:12;95985.22;;;9.79;100.00
14067;BME280;7108;42.684;23.350;2023-02-28T08:49:38;95954.00;;;9.67;100.00
14067;BME280;7108;42.684;23.350;2023-02-28T08:52:04;95966.81;;;9.81;100.00
14067;BME280;7108;42.684;23.350;2023-02-28T08:54:29;95976.03;;;9.92;100.00
14067;BME280;7108;42.684;23.350;2023-02-28T08:56:57;95977.31;;;10.07;100.00
14067;BME280;7108;42.684;23.350;2023-02-28T08:59:22;95973.59;;;10.11;100.00
14067;BME280;7108;42.684;23.350;2023-02-28T09:01:48;95961.59;;;10.09;100.00
14067;BME280;7108;42.684;23.350;2023-02-28T09:04:14;95958.78;;;10.17;100.00
14067;BME280;7108;42.684;23.350;2023-02-28T09:06:39;95960.94;;;10.24;100.00
14067;BME280;7108;42.684;23.350;2023-02-28T09:09:05;95959.81;;;10.25;100.00
14067;BME280;7108;42.684;23.350;2023-02-28T09:11:35;95940.94;;;10.25;100.00
14067;BME280;7108;42.684;23.350;2023-02-28T09:14:01;95969.34;;;10.46;100.00
14067;BME280;7108;42.684;23.350;2023-02-28T09:16:29;95974.41;;;10.47;100.00
14067;BME280;7108;42.684;23.350;2023-02-28T09:18:55;95966.31;;;10.47;100.00
14067;BME280;7108;42.684;23.350;2023-02-28T09:21:20;95946.56;;;10.32;100.00
14067;BME280;7108;42.684;23.350;2023-02-28T09:23:47;95958.91;;;10.45;100.00
14067;BME280;7108;42.684;23.350;2023-02-28T09:26:17;95974.94;;;10.53;100.00
14067;BME280;7108;42.684;23.350;2023-02-28T09:28:43;95929.50;;;10.40;100.00
14067;BME280;7108;42.684;23.350;2023-02-28T09:31:17;95949.91;;;10.52;100.00
14067;BME280;7108;42.684;23.350;2023-02-28T09:33:46;95953.84;;;10.55;100.00
14067;BME280;7108;42.684;23.350;2023-02-28T09:36:12;95952.25;;;10.66;100.00
14067;BME280;7108;42.684;23.350;2023-02-28T09:38:37;95944.69;;;10.71;100.00
14067;BME280;7108;42.684;23.350;2023-02-28T09:41:13;95953.66;;;10.87;100.00
14067;BME280;7108;42.684;23.350;2023-02-28T09:43:43;95949.47;;;10.90;100.00
14067;BME280;7108;42.684;23.350;2023-02-28T09:46:40;95946.22;;;10.96;100.00
14067;BME280;7108;42.684;23.350;2023-02-28T09:49:12;95955.63;;;11.02;100.00
14067;BME280;7108;42.684;23.350;2023-02-28T09:54:17;95914.38;;;10.74;100.00
14067;BME280;7108;42.684;23.350;2023-02-28T09:56:49;95944.31;;;10.97;100.00
14067;BME280;7108;42.684;23.350;2023-02-28T09:59:27;95946.66;;;10.98;100.00
14067;BME280;7108;42.684;23.350;2023-02-28T10:09:53;95930.78;;;11.09;100.00
14067;BME280;7108;42.684;23.350;2023-02-28T10:12:20;95903.81;;;11.09;100.00
14067;BME280;7108;42.684;23.350;2023-02-28T10:14:50;95915.53;;;11.01;100.00
14067;BME280;7108;42.684;23.350;2023-02-28T10:17:21;95924.91;;;11.18;100.00
14067;BME280;7108;42.684;23.350;2023-02-28T10:19:56;95932.75;;;11.23;100.00
14067;BME280;7108;42.684;23.350;2023-02-28T10:22:38;95927.31;;;11.35;100.00
14067;BME280;7108;42.684;23.350;2023-02-28T10:25:52;95920.22;;;11.31;100.00
14067;BME280;7108;42.684;23.350;2023-02-28T10:28:17;95911.72;;;11.44;100.00
14067;BME280;7108;42.684;23.350;2023-02-28T10:30:48;95901.81;;;11.48;100.00
14067;BME280;7108;42.684;23.350;2023-02-28T10:33:25;95915.16;;;11.57;100.00
14067;BME280;7108;42.684;23.350;2023-02-28T10:35:53;95880.94;;;11.45;100.00
14067;BME280;7108;42.684;23.350;2023-02-28T10:38:26;95894.53;;;11.64;100.00
14067;BME280;7108;42.684;23.350;2023-02-28T10:41:06;95902.22;;;11.77;100.00
14067;BME280;7108;42.684;23.350;2023-02-28T10:43:32;95886.34;;;11.91;100.00
14067;BME280;7108;42.684;23.350;2023-02-28T10:48:39;95878.59;;;12.05;100.00
14067;BME280;7108;42.684;23.350;2023-02-28T10:51:10;95865.09;;;12.05;100.00
14067;BME280;7108;42.684;23.350;2023-02-28T10:53:54;95845.56;;;12.12;100.00
14067;BME280;7108;42.684;23.350;2023-02-28T10:56:22;95833.72;;;12.01;100.00
14067;BME280;7108;42.684;23.350;2023-02-28T10:59:03;95832.69;;;12.05;100.00
14067;BME280;7108;42.684;23.350;2023-02-28T11:01:47;95819.69;;;11.95;100.00
14067;BME280;7108;42.684;23.350;2023-02-28T11:09:46;95824.81;;;12.00;100.00
14067;BME280;7108;42.684;23.350;2023-02-28T11:14:56;95834.47;;;12.17;100.00
14067;BME280;7108;42.684;23.350;2023-02-28T11:17:26;95827.69;;;12.07;100.00
14067;BME280;7108;42.684;23.350;2023-02-28T11:19:58;95858.06;;;12.20;100.00
14067;BME280;7108;42.684;23.350;2023-02-28T11:22:29;95827.28;;;12.05;100.00
14067;BME280;7108;42.684;23.350;2023-02-28T11:25:00;95837.69;;;12.22;100.00
14067;BME280;7108;42.684;23.350;2023-02-28T11:29:55;95817.63;;;12.23;100.00
14067;BME280;7108;42.684;23.350;2023-02-28T11:32:26;95834.41;;;12.32;100.00
14067;BME280;7108;42.684;23.350;2023-02-28T11:37:39;95822.34;;;12.26;100.00
14067;BME280;7108;42.684;23.350;2023-02-28T11:40:15;95828.00;;;12.21;100.00
14067;BME280;7108;42.684;23.350;2023-02-28T11:48:23;95823.69;;;12.01;100.00
14067;BME280;7108;42.684;23.350;2023-02-28T11:56:30;95820.84;;;11.94;100.00
14067;BME280;7108;42.684;23.350;2023-02-28T12:04:46;95814.56;;;11.90;100.00
14067;BME280;7108;42.684;23.350;2023-02-28T12:10:04;95807.75;;;11.96;100.00
14067;BME280;7108;42.684;23.350;2023-02-28T12:13:05;95814.47;;;12.02;100.00
14067;BME280;7108;42.684;23.350;2023-02-28T12:15:43;95814.63;;;12.09;100.00
14067;BME280;7108;42.684;23.350;2023-02-28T12:18:33;95796.84;;;12.08;100.00
14067;BME280;7108;42.684;23.350;2023-02-28T12:21:05;95809.38;;;12.16;100.00
14067;BME280;7108;42.684;23.350;2023-02-28T12:26:36;95806.16;;;12.11;100.00
14067;BME280;7108;42.684;23.350;2023-02-28T12:29:28;95807.47;;;12.17;100.00
14067;BME280;7108;42.684;23.350;2023-02-28T12:32:15;95806.75;;;12.20;100.00
14067;BME280;7108;42.684;23.350;2023-02-28T12:34:48;95800.50;;;12.16;100.00
14067;BME280;7108;42.684;23.350;2023-02-28T12:37:28;95798.06;;;12.11;100.00
14067;BME280;7108;42.684;23.350;2023-02-28T12:40:00;95793.66;;;12.03;100.00
14067;BME280;7108;42.684;23.350;2023-02-28T12:42:34;95777.91;;;11.89;100.00
14067;BME280;7108;42.684;23.350;2023-02-28T12:45:06;95797.13;;;12.03;100.00
14067;BME280;7108;42.684;23.350;2023-02-28T12:47:34;95792.63;;;11.92;100.00
14067;BME280;7108;42.684;23.350;2023-02-28T12:50:07;95780.84;;;12.00;100.00
14067;BME280;7108;42.684;23.350;2023-02-28T12:55:32;95779.47;;;11.90;100.00
14067;BME280;7108;42.684;23.350;2023-02-28T12:58:30;95796.28;;;11.99;100.00
14067;BME280;7108;42.684;23.350;2023-02-28T13:11:46;95783.00;;;12.10;100.00
14067;BME280;7108;42.684;23.350;2023-02-28T13:22:46;95796.47;;;12.44;100.00
14067;BME280;7108;42.684;23.350;2023-02-28T13:28:01;95783.16;;;12.36;100.00
14067;BME280;7108;42.684;23.350;2023-02-28T13:38:43;95795.84;;;12.16;100.00
14067;BME280;7108;42.684;23.350;2023-02-28T13:44:15;95783.03;;;12.29;100.00
14067;BME280;7108;42.684;23.350;2023-02-28T13:59:32;95770.47;;;12.02;100.00
14067;BME280;7108;42.684;23.350;2023-02-28T14:02:32;95764.25;;;11.82;100.00
14067;BME280;7108;42.684;23.350;2023-02-28T14:05:01;95758.25;;;11.74;100.00
14067;BME280;7108;42.684;23.350;2023-02-28T14:07:37;95772.63;;;11.77;100.00
14067;BME280;7108;42.684;23.350;2023-02-28T14:10:08;95765.91;;;11.72;100.00
14067;BME280;7108;42.684;23.350;2023-02-28T14:13:12;95775.94;;;11.71;100.00
14067;BME280;7108;42.684;23.350;2023-02-28T14:15:41;95777.94;;;11.74;100.00
14067;BME280;7108;42.684;23.350;2023-02-28T14:20:44;95787.59;;;11.75;100.00
14067;BME280;7108;42.684;23.350;2023-02-28T14:31:40;95795.28;;;11.58;100.00
14067;BME280;7108;42.684;23.350;2023-02-28T14:36:49;95780.53;;;11.40;100.00
14067;BME280;7108;42.684;23.350;2023-02-28T14:39:22;95794.63;;;11.49;100.00
14067;BME280;7108;42.684;23.350;2023-02-28T14:41:50;95795.44;;;11.49;100.00
14067;BME280;7108;42.684;23.350;2023-02-28T14:44:23;95774.09;;;11.29;100.00
14067;BME280;7108;42.684;23.350;2023-02-28T14:46:55;95777.75;;;11.36;100.00
14067;BME280;7108;42.684;23.350;2023-02-28T14:49:36;95795.53;;;11.37;100.00
14067;BME280;7108;42.684;23.350;2023-02-28T14:52:14;95802.31;;;11.31;100.00
14067;BME280;7108;42.684;23.350;2023-02-28T14:54:41;95807.19;;;11.26;100.00
14067;BME280;7108;42.684;23.350;2023-02-28T14:57:29;95802.56;;;11.26;100.00
14067;BME280;7108;42.684;23.350;2023-02-28T15:02:38;95809.44;;;11.24;100.00
14067;BME280;7108;42.684;23.350;2023-02-28T15:07:36;95790.47;;;11.05;100.00
14067;BME280;7108;42.684;23.350;2023-02-28T15:10:09;95799.59;;;11.16;100.00
14067;BME280;7108;42.684;23.350;2023-02-28T15:12:35;95788.81;;;11.16;100.00
14067;BME280;7108;42.684;23.350;2023-02-28T15:15:02;95806.31;;;11.22;100.00
14067;BME280;7108;42.684;23.350;2023-02-28T15:17:28;95775.75;;;11.18;100.00
14067;BME280;7108;42.684;23.350;2023-02-28T15:19:54;95780.88;;;11.08;100.00
14067;BME280;7108;42.684;23.350;2023-02-28T15:22:33;95770.06;;;10.92;100.00
14067;BME280;7108;42.684;23.350;2023-02-28T15:25:02;95780.19;;;10.95;100.00
14067;BME280;7108;42.684;23.350;2023-02-28T15:27:31;95791.94;;;11.03;100.00
14067;BME280;7108;42.684;23.350;2023-02-28T15:30:30;95813.34;;;11.11;100.00
14067;BME280;7108;42.684;23.350;2023-02-28T15:33:19;95817.53;;;11.09;100.00
14067;BME280;7108;42.684;23.350;2023-02-28T15:35:47;95820.28;;;10.97;100.00
14067;BME280;7108;42.684;23.350;2023-02-28T15:38:24;95819.75;;;10.91;100.00
14067;BME280;7108;42.684;23.350;2023-02-28T15:40:57;95788.09;;;10.61;100.00
14067;BME280;7108;42.684;23.350;2023-02-28T15:43:30;95814.22;;;10.72;100.00